Hoppa till innehåll

METAR väder och rapporter - ESGG

Nedan listas information från vald flygplats. Andra METARs finns längre ned på sidan. Kontakta oss om någon saknas eller skriv in egen ICAO-kod.

Andra intressanta METARs

Klicka på önskad rubrik nedan för att visa nuvarande väder för den platsen.

Avstånd från stationen: NO 27kmESGG - Göteborg (Landvetter)
Uppdaterad: 2022-10-07 16:20
 Vind från SSV
Vind: SSV 43 km/h
Temperatur: 12°C
Daggpunkt: 10°C
Luftfuktighet: 88%
Barometer: 1010 hPa
Moln: Övervägande molnigt
Sikt: 10 km
Molninformation: Övervägande molnigt 244 m
2022/10/07 14:20 ESGG 071420Z 21023KT 9999 BKN008 12/10 Q1010
Övervägande molnigt
Övervägande molnigt
  Visa detaljer för Göteborg (Landvetter)
Avstånd från stationen: N 28kmESGP - Göteborg (Säve)
Uppdaterad: 2022-10-07 16:20
 Vind från SSV
Vind: SSV 33 km/h
Temperatur: 14°C
Daggpunkt: 12°C
Luftfuktighet: 88%
Barometer: 1009 hPa
Moln: Övervägande molnigt
Sikt: 10 km
Molninformation: Delvis molnigt 305 m
Övervägande molnigt 396 m
2022/10/07 14:20 ESGP 071420Z 20018KT 9999 SCT010 BKN013 14/12 Q1009
Övervägande molnigt
Övervägande molnigt
  Visa detaljer för Göteborg (Säve)
Avstånd från stationen: NO 419kmESSA - Stockholm (Arlanda)
Uppdaterad: 2022-10-07 16:20
 Vind från SSV
Vind: SSV 39 km/h
Temperatur: 15°C
Daggpunkt: 9°C
Luftfuktighet: 68%
Barometer: 1007 hPa
Moln: Övervägande molnigt
Sikt: 10 km
Molninformation: Delvis molnigt 1006 m
Övervägande molnigt 1554 m
2022/10/07 14:20 ESSA 071420Z 21021KT 9999 SCT033 BKN051 15/09 Q1007 NOSIG
Övervägande molnigt
Övervägande molnigt
  Visa detaljer för Stockholm (Arlanda)
Avstånd från stationen: ONO 404kmESSB - Stockholm (Bromma)
Uppdaterad: 2022-10-07 16:20
 Vind från SSV
Vind: SSV 26 km/h
Vindby: 50 km/h
Temperatur: 16°C
Daggpunkt: 9°C
Luftfuktighet: 63%
Barometer: 1008 hPa
Moln: Delvis molnigt
Sikt: 10 km
Molninformation: Delvis molnigt 1006 m
2022/10/07 14:20 ESSB 071420Z 21014G27KT 180V240 9999 SCT033 16/09 Q1008
Delvis molnigt
Delvis molnigt
  Visa detaljer för Stockholm (Bromma)
Avstånd från stationen: ONO 323kmESKN - Stockholm (Skavsta)
Uppdaterad: 2022-10-07 16:20
 Vind från SSV
Vind: SSV 31 km/h
Temperatur: 16°C
Daggpunkt: 10°C
Luftfuktighet: 68%
Barometer: 1009 hPa
Moln: Övervägande molnigt
Sikt: 10 km
Molninformation: Övervägande molnigt 1372 m
2022/10/07 14:20 ESKN 071420Z 21017KT 9999 BKN045 16/10 Q1009
Övervägande molnigt
Övervägande molnigt
  Visa detaljer för Stockholm (Skavsta)
Avstånd från stationen: SSO 238kmESMS - Malmö flygplats (Sturup)
Uppdaterad: 2022-10-07 16:20
 Vind från SSV
Vind: SSV 28 km/h
Temperatur: 14°C
Daggpunkt: 10°C
Luftfuktighet: 77%
Barometer: 1017 hPa
Moln: Delvis molnigt
Sikt: 10 km
Molninformation: Några få moln 579 m
Delvis molnigt 792 m
2022/10/07 14:20 ESMS 071420Z 21015KT 9999 FEW019 SCT026 14/10 Q1017
Delvis molnigt
Delvis molnigt
  Visa detaljer för Malmö flygplats (Sturup)
Avstånd från stationen: O 382kmESSV - Visby flygplats
Uppdaterad: 2022-10-07 16:20
 Vind från SSV
Vind: SSV 43 km/h
Temperatur: 14°C
Daggpunkt: 10°C
Luftfuktighet: 77%
Barometer: 1014 hPa
Moln: Delvis molnigt
Sikt: 10 km
2022/10/07 14:20 ESSV 071420Z 20023KT 9999 NSC 14/10 Q1014
Delvis molnigt
Delvis molnigt
  Visa detaljer för Visby flygplats
Avstånd från stationen: NNO 92kmESGT - Trollhättan
Uppdaterad: 2022-10-07 16:20
 Vind från SSV
Vind: SSV 37 km/h
Vindby: 59 km/h
Temperatur: 15°C
Daggpunkt: 10°C
Luftfuktighet: 72%
Barometer: 1007 hPa
Moln: Övervägande molnigt
Sikt: 10 km
Molninformation: Delvis molnigt 671 m
Övervägande molnigt 945 m
2022/10/07 14:20 ESGT 071420Z 21020G32KT 9999 SCT022 BKN031 15/10 Q1007
Övervägande molnigt
Övervägande molnigt
  Visa detaljer för Trollhättan
Avstånd från stationen: ONO 129kmESGJ - Jönköpings flygplats
Uppdaterad: 2022-10-07 16:20
 Vind från SSV
Vind: SSV 30 km/h
Temperatur: 12°C
Daggpunkt: 11°C
Luftfuktighet: 94%
Barometer: 1011 hPa
Moln: Övervägande molnigt
Sikt: 10 km
Molninformation: Övervägande molnigt 335 m
2022/10/07 14:20 ESGJ 071420Z AUTO 21016KT 9999 BKN011/// 12/11 Q1011
Övervägande molnigt
Övervägande molnigt
  Visa detaljer för Jönköpings flygplats
Avstånd från stationen: NNO 229kmESOK - Karlstad
Uppdaterad: 2022-10-07 16:20
 Vind från SSV
Vind: SSV 22 km/h
Temperatur: 13°C
Daggpunkt: 10°C
Luftfuktighet: 82%
Barometer: 1005 hPa
Moln: Övervägande molnigt
Sikt: 10 km
Molninformation: Några få moln 305 m
Övervägande molnigt 762 m
2022/10/07 14:20 ESOK 071420Z 21012KT 9999 FEW010 BKN025 13/10 Q1005
Övervägande molnigt
Övervägande molnigt
  Visa detaljer för Karlstad
Avstånd från stationen: N 643kmESNZ - Östersund (Frösön)
Uppdaterad: 2022-10-07 16:20
 Vind från SSV
Vind: SSV 17 km/h
Temperatur: 13°C
Daggpunkt: 7°C
Luftfuktighet: 67%
Barometer: 993 hPa
Moln: Några få moln
Sikt: 10 km
Molninformation: Några få moln 1250 m
2022/10/07 14:20 ESNZ 071420Z 21009KT 9999 FEW041 13/07 Q0993
Några få moln
Några få moln
  Visa detaljer för Östersund (Frösön)
Avstånd från stationen: SSO 216kmEKCH - Köpenhamn (Kastrup)
Uppdaterad: 2022-10-07 16:20
 Vind från SV
Vind: SV 28 km/h
Temperatur: 15°C
Daggpunkt: 10°C
Luftfuktighet: 72%
Barometer: 1016 hPa
Moln: Övervägande molnigt
Sikt: 10 km
Molninformation: Övervägande molnigt 792 m
2022/10/07 14:20 EKCH 071420Z AUTO 22015KT 9999 BKN026/// 15/10 Q1016 NOSIG
Övervägande molnigt
Övervägande molnigt
  Visa detaljer för Köpenhamn (Kastrup)
Avstånd från stationen: SV 263kmEKBI - Billund Airport
Uppdaterad: 2022-10-07 16:20
 Vind från SSV
Vind: SSV 28 km/h
Vindby: 48 km/h
Temperatur: 15°C
Daggpunkt: 12°C
Luftfuktighet: 82%
Barometer: 1013 hPa
Moln: Övervägande molnigt
Sikt: 10 km
Molninformation: Övervägande molnigt 488 m
2022/10/07 14:20 EKBI 071420Z 21015G26KT 190V250 9999 BKN016 15/12 Q1013
Övervägande molnigt
Övervägande molnigt
  Visa detaljer för Billund Airport
Avstånd från stationen: N 302kmENGM - Oslo (Gardermoen)
Uppdaterad: 2022-10-07 16:20
 Vind från SSV
Vind: SSV 30 km/h
Temperatur: 13°C
Daggpunkt: 10°C
Luftfuktighet: 82%
Barometer: 999 hPa
Moln: Övervägande molnigt
Sikt: 10 km
Molninformation: Några få moln 579 m
Delvis molnigt 762 m
Övervägande molnigt 2621 m
2022/10/07 14:20 ENGM 071420Z 21016KT 9999 FEW019 SCT025 BKN086 13/10 Q0999 TEMPO 20018G28KT BKN012
Övervägande molnigt
Övervägande molnigt
  Visa detaljer för Oslo (Gardermoen)
Avstånd från stationen: NO 540kmEFMA - Mariehamn / Åland
Uppdaterad: 2022-10-07 16:20
 Vind från SSV
Vind: SSV 31 km/h
Temperatur: 13°C
Daggpunkt: 12°C
Luftfuktighet: 94%
Barometer: 1007 hPa
Moln: Delvis molnigt
Sikt: 10 km
Molninformation: Delvis molnigt 914 m
2022/10/07 14:20 EFMA 071420Z 20017KT 9999 SCT030 13/12 Q1007
Delvis molnigt
Delvis molnigt
  Visa detaljer för Mariehamn / Åland
Avstånd från stationen: S 558kmEDDT - Berlin (Tegel), Germany
Uppdaterad: 2020-11-09 07:50
Ej aktuell
 Vind från O
Vind: O 11 km/h
Temperatur: 6°C
Vindavkylning: 4°C
Daggpunkt: 5°C
Luftfuktighet: 93%
Barometer: 1027 hPa
Summering: Dimmigt
Moln: Genommulet
Sikt: 3 km
Molninformation: Genommulet 91 m
2020/11/09 06:50 EDDT 090650Z 09006KT 050V120 3000 BR OVC003 06/05 Q1027
Dimmigt, Genommulet
Dimmigt
Genommulet
  Visa detaljer för Berlin (Tegel), Germany
Avstånd från stationen: SV 737kmEHAM - Amsterdam (Schiphol)
Uppdaterad: 2022-10-07 16:25
 Vind från SV
Vind: SV 24 km/h
Temperatur: 17°C
Daggpunkt: 11°C
Luftfuktighet: 68%
Barometer: 1018 hPa
Moln: Några få moln
Sikt: 10 km
Molninformation: Några få moln 610 m
2022/10/07 14:25 EHAM 071425Z 22013KT 180V240 9999 FEW020 17/11 Q1018 NOSIG
Några få moln
Några få moln
  Visa detaljer för Amsterdam (Schiphol)
Avstånd från stationen: ONO 808kmEFHK - Helsingfors (Vantaa)
Uppdaterad: 2022-10-07 16:20
 Vind från SV
Vind: SV 22 km/h
Temperatur: 13°C
Daggpunkt: 10°C
Luftfuktighet: 82%
Barometer: 1010 hPa
Moln: Övervägande molnigt
Sikt: 10 km
Molninformation: Övervägande molnigt 549 m
2022/10/07 14:20 EFHK 071420Z 22012KT 9999 BKN018 13/10 Q1010 BECMG FM1500 BKN014
Övervägande molnigt
Övervägande molnigt
  Visa detaljer för Helsingfors (Vantaa)
Avstånd från stationen: SSV 537kmEDDW - Bremen
Uppdaterad: 2022-10-07 16:20
 Vind från SV
Vind: SV 20 km/h
Temperatur: 18°C
Daggpunkt: 9°C
Luftfuktighet: 56%
Barometer: 1018 hPa
Summering: Klart
Sikt: mer än 10 km
2022/10/07 14:20 EDDW 071420Z AUTO 22011KT CAVOK 18/09 Q1018 NOSIG
Klart
Klart
  Visa detaljer för Bremen
Avstånd från stationen: SSV 861kmEDDF - Frankfurt am Main
Uppdaterad: 2022-10-07 16:20
 Vind från S
Vind: S 9 km/h
Temperatur: 19°C
Daggpunkt: 9°C
Luftfuktighet: 52%
Barometer: 1021 hPa
Summering: Klart
Sikt: mer än 10 km
2022/10/07 14:20 EDDF 071420Z AUTO 18005KT 130V220 CAVOK 19/09 Q1021 NOSIG
Klart
Klart
  Visa detaljer för Frankfurt am Main
Avstånd från stationen: SV 880kmEBBR - Bryssel international
Uppdaterad: 2022-10-07 16:20
 Vind från SV
Vind: SV 15 km/h
Temperatur: 18°C
Daggpunkt: 7°C
Luftfuktighet: 49%
Barometer: 1020 hPa
Summering: Klart
Sikt: mer än 10 km
2022/10/07 14:20 EBBR 071420Z 22008KT 200V260 CAVOK 18/07 Q1020 NOSIG
Klart
Klart
  Visa detaljer för Bryssel international
Avstånd från stationen: SV 738kmEHAM - Amsterdam (Schiphol)
Uppdaterad: 2022-10-07 16:25
 Vind från SV
Vind: SV 24 km/h
Temperatur: 17°C
Daggpunkt: 11°C
Luftfuktighet: 68%
Barometer: 1018 hPa
Moln: Några få moln
Sikt: 10 km
Molninformation: Några få moln 610 m
2022/10/07 14:25 EHAM 071425Z 22013KT 180V240 9999 FEW020 17/11 Q1018 NOSIG
Några få moln
Några få moln
  Visa detaljer för Amsterdam (Schiphol)
Avstånd från stationen: SV 1044kmEGLL - London (Heathrow)
Uppdaterad: 2022-10-07 16:20
 Vind från VSV
Vind: VSV 30 km/h
Temperatur: 18°C
Daggpunkt: 9°C
Luftfuktighet: 56%
Barometer: 1016 hPa
Moln: Övervägande molnigt
Sikt: 10 km
Molninformation: Delvis molnigt 1158 m
Övervägande molnigt 1372 m
2022/10/07 14:20 EGLL 071420Z AUTO 24016KT 9999 SCT038 BKN045 18/09 Q1016
Övervägande molnigt
Övervägande molnigt
  Visa detaljer för London (Heathrow)
Avstånd från stationen: SV 1132kmLFPG - Paris (Charles de Gaulle)
Uppdaterad: 2022-10-07 16:30
 Vind från SV
Vind: SV 7 km/h
Temperatur: 20°C
Daggpunkt: 5°C
Luftfuktighet: 38%
Barometer: 1021 hPa
Summering: Klart
Sikt: mer än 10 km
2022/10/07 14:30 LFPG 071430Z 22004KT 150V300 CAVOK 20/05 Q1021 NOSIG
Klart
Klart
  Visa detaljer för Paris (Charles de Gaulle)
Avstånd från stationen: SSV 1142kmLSZH - Zürich Airport
Uppdaterad: 2022-10-07 16:20
 Vind från varierande
Vind: varierande 2 km/h
Temperatur: 20°C
Daggpunkt: 13°C
Luftfuktighet: 64%
Barometer: 1023 hPa
Moln: Några få moln
Sikt: 10 km
Molninformation: Några få moln 853 m
2022/10/07 14:20 LSZH 071420Z VRB01KT 9999 FEW028 20/13 Q1023 NOSIG
Några få moln
Några få moln
  Visa detaljer för Zürich Airport
Avstånd från stationen: S 1749kmLIRF - Rome Airport (Fiumicino - Leonardo da Vinci)
Uppdaterad: 2022-10-07 16:20
 Vind från V
Vind: V 11 km/h
Temperatur: 21°C
Daggpunkt: 18°C
Luftfuktighet: 83%
Barometer: 1022 hPa
Summering: Klart
Sikt: mer än 10 km
2022/10/07 14:20 LIRF 071420Z 27006KT CAVOK 21/18 Q1022 NOSIG
Klart
Klart
  Visa detaljer för Rome Airport (Fiumicino - Leonardo da Vinci)
Avstånd från stationen: SO 2679kmLTAI - Antalya
Uppdaterad: 2022-10-07 16:20
 Vind från V
Vind: V 13 km/h
Temperatur: 24°C
Daggpunkt: 14°C
Luftfuktighet: 54%
Barometer: 1011 hPa
Moln: Delvis molnigt
Sikt: 10 km
Molninformation: Några få moln 610 m
Delvis molnigt 914 m
2022/10/07 14:20 LTAI 071420Z 28007KT 250V330 9999 FEW020CB SCT030 24/14 Q1011 TEMPO FM1500 4000 TSRA
Delvis molnigt
Delvis molnigt
  Visa detaljer för Antalya
Avstånd från stationen: VSV 6074kmKJFK - New Your (JFK)
Uppdaterad: 2022-10-07 15:51
 Vind från SV
Vind: SV 11 km/h
Temperatur: 19°C
Daggpunkt: 13°C
Luftfuktighet: 68%
Barometer: 1015.2 hPa
Moln: Några få moln
Sikt: 16 km
Molninformation: Några få moln 2591 m
Några få moln 4877 m
2022/10/07 13:51 KJFK 071351Z 23006KT 10SM FEW085 FEW160 19/13 A2998 RMK AO2 SLP152 T01890133
Några få moln
Några få moln
  Visa detaljer för New Your (JFK)
Avstånd från stationen: VSV 8848kmKLAX - Los Angeles International Airport
Uppdaterad: 2022-10-07 15:53
 Vind från varierande
Vind: varierande 6 km/h
Temperatur: 21°C
Daggpunkt: 17°C
Luftfuktighet: 78%
Barometer: 1017.3 hPa
Summering: Disigt
Moln: Genommulet
Sikt: 8 km
Molninformation: Några få moln 274 m
Genommulet 427 m
2022/10/07 13:53 KLAX 071353Z VRB03KT 5SM HZ FEW009 OVC014 21/17 A3004 RMK AO2 SLP171 T02060172
Disigt, Genommulet
Disigt
Genommulet
  Visa detaljer för Los Angeles International Airport
Avstånd från stationen: SO 4968kmOMDB - Dubai International Airport
Uppdaterad: 2022-10-07 16:00
 Vind från O
Vind: O 20 km/h
Temperatur: 39°C
Daggpunkt: -10°C
Luftfuktighet: 4%
Barometer: 1005 hPa
Summering: Klart
Sikt: mer än 10 km
2022/10/07 14:00 OMDB 071400Z 10011KT CAVOK 39/M10 Q1005 NOSIG
Klart
Klart
  Visa detaljer för Dubai International Airport
Avstånd från stationen: OSO 8570kmRJTT - Tokyo International Airport
Uppdaterad: 2022-10-07 16:30
 Vind från N
Vind: N 31 km/h
Temperatur: 15°C
Daggpunkt: 13°C
Luftfuktighet: 88%
Barometer: 1012 hPa
Moln: Övervägande molnigt
Sikt: 10 km
Molninformation: Några få moln 244 m
Delvis molnigt 366 m
Övervägande molnigt 1829 m
2022/10/07 14:30 RJTT 071430Z 35017KT 9999 FEW008 SCT012 BKN060 15/13 Q1012 NOSIG RMK 1ST008 3CU012 7SC060 A2990
Övervägande molnigt
Övervägande molnigt
  Visa detaljer för Tokyo International Airport
Avstånd från stationen: OSO 7125kmZBAA - Peking (Beijing Capital)
Uppdaterad: 2022-10-07 16:30
 Vind från O
Vind: O 7 km/h
Temperatur: 12°C
Daggpunkt: 9°C
Luftfuktighet: 82%
Barometer: 1020 hPa
Moln: Delvis molnigt
Sikt: 8 km
2022/10/07 14:30 ZBAA 071430Z 09002MPS 060V130 8000 NSC 12/09 Q1020 NOSIG
Delvis molnigt
Delvis molnigt
  Visa detaljer för Peking (Beijing Capital)
VÄDER KURIOSA -  Weather TermsTornado - A violently rotating column of air, from a thunderstorm, in contact with the ground.